Terminal Aerodrome Forecast
Issued by NWS Sioux Falls, SD

Home | Current Version | Previous Version | Text Only | Print | Product List | Glossary On
Versions: 1 2 3 4 5 6 7 8 9 10 11 12 13
630
FTUS43 KFSD 272320
TAFHON
TAF
KHON 272320Z 2800/2824 20010KT P6SM BKN120
     FM280400 13006KT P6SM OVC080
     FM280700 07005KT P6SM OVC050
     FM280900 01009KT 5SM BR OVC015
     FM281400 36011KT P6SM OVC015
     FM281800 01011KT P6SM BKN020=

USA.gov is the U.S. government's official web portal to all federal, state and local government web resources and services.